Time;durP1;ratioP1;P1;durP2;ratioP2;P2;SDS_P1;SDS_P2;PMS_P1;PMS_P2;Temp;Humidity;BMP_temperature;BMP_pressure;BME280_temperature;BME280_humidity;BME280_pressure;Samples;Min_cycle;Max_cycle;Signal;HPM_P1;HPM_P2
2023/12/06 00:00:29;;;;;;;49.83;21.05;;;;;;;5.85;87.45;99619.56;5135452;27;20198;-38
2023/12/06 00:02:54;;;;;;;50.45;20.50;;;;;;;5.87;87.53;99609.63;5135523;27;20101;-39
2023/12/06 00:05:20;;;;;;;42.72;20.08;;;;;;;5.67;86.08;99617.22;5116935;27;20451;-38
2023/12/06 00:07:45;;;;;;;43.70;20.13;;;;;;;5.51;87.60;99613.84;5136049;27;20030;-39
2023/12/06 00:10:11;;;;;;;42.25;20.02;;;;;;;5.49;89.36;99619.28;5135558;27;20505;-37
2023/12/06 00:12:36;;;;;;;43.67;21.02;;;;;;;5.75;88.09;99604.94;5135507;27;20038;-39
2023/12/06 00:15:01;;;;;;;44.75;20.52;;;;;;;5.43;88.40;99602.34;5135496;27;20110;-36
2023/12/06 00:17:27;;;;;;;44.15;19.48;;;;;;;5.44;87.89;99606.59;5135382;27;20046;-39
2023/12/06 00:19:52;;;;;;;51.85;20.15;;;;;;;5.48;89.50;99613.19;5135267;27;20394;-39
2023/12/06 00:22:18;;;;;;;52.15;20.85;;;;;;;5.71;88.47;99604.47;5135265;27;20015;-25
2023/12/06 00:24:43;;;;;;;50.35;21.17;;;;;;;5.78;87.60;99600.13;5135115;27;20024;-25
2023/12/06 00:27:08;;;;;;;47.20;21.73;;;;;;;5.67;88.12;99600.53;5135159;27;20019;-27
2023/12/06 00:29:34;;;;;;;46.50;21.38;;;;;;;5.84;88.09;99596.78;5135524;27;20031;-27
2023/12/06 00:31:59;;;;;;;59.63;21.92;;;;;;;5.66;87.14;99606.81;5135151;27;20535;-26
2023/12/06 00:34:24;;;;;;;43.40;20.75;;;;;;;5.70;87.35;99607.28;5134959;27;20117;-26
2023/12/06 00:36:50;;;;;;;48.47;21.30;;;;;;;5.83;86.70;99597.78;5134977;27;20023;-25
2023/12/06 00:39:15;;;;;;;45.22;21.13;;;;;;;5.77;87.15;99595.84;5134907;27;20027;-26
2023/12/06 00:41:41;;;;;;;54.28;22.95;;;;;;;5.58;88.45;99599.78;5134368;27;20463;-26
2023/12/06 00:44:07;;;;;;;52.05;22.60;;;;;;;5.69;88.65;99595.88;5135065;27;20031;-27
2023/12/06 00:46:33;;;;;;;57.00;23.70;;;;;;;5.90;87.87;99578.59;5134880;27;20019;-26
2023/12/06 00:48:59;;;;;;;47.63;22.77;;;;;;;6.02;86.85;99587.78;5134228;27;20038;-26
2023/12/06 00:51:25;;;;;;;53.60;22.42;;;;;;;5.93;87.69;99583.53;5134355;27;20091;-26
2023/12/06 00:53:50;;;;;;;55.08;24.60;;;;;;;5.83;88.36;99576.66;5134337;27;20408;-26
2023/12/06 00:56:16;;;;;;;52.22;23.67;;;;;;;5.79;89.20;99579.84;5134290;27;20055;-40
2023/12/06 00:58:43;;;;;;;55.33;23.20;;;;;;;5.76;88.66;99574.91;5134057;27;20110;-40
2023/12/06 01:01:11;;;;;;;58.03;23.52;;;;;;;5.80;88.77;99577.00;5133787;27;20058;-39
2023/12/06 01:03:37;;;;;;;54.53;23.85;;;;;;;5.94;88.70;99583.34;5134139;27;20146;-39
2023/12/06 01:06:03;;;;;;;49.28;23.90;;;;;;;5.74;89.11;99580.34;5134473;27;20035;-38
2023/12/06 01:08:28;;;;;;;53.22;23.50;;;;;;;5.74;89.87;99571.63;5134116;27;20030;-40
2023/12/06 01:10:53;;;;;;;57.03;22.60;;;;;;;6.01;88.29;99584.28;5133927;27;20516;-39
2023/12/06 01:13:19;;;;;;;56.17;22.85;;;;;;;5.86;89.54;99573.69;5134052;27;20188;-37
2023/12/06 01:15:44;;;;;;;50.35;22.33;;;;;;;6.02;88.22;99577.22;5134191;27;20038;-39
2023/12/06 01:18:10;;;;;;;51.88;22.23;;;;;;;5.93;88.48;99570.31;5133893;27;20031;-38
2023/12/06 01:20:38;;;;;;;53.40;22.95;;;;;;;5.61;89.95;99562.44;5133551;27;20134;-39
2023/12/06 01:23:04;;;;;;;47.17;22.92;;;;;;;5.59;90.49;99563.63;5133767;27;20031;-38
2023/12/06 01:25:29;;;;;;;51.58;22.40;;;;;;;5.57;90.15;99555.06;5133484;27;20477;-37
2023/12/06 01:27:55;;;;;;;57.75;23.42;;;;;;;5.71;91.03;99546.38;5133668;27;20027;-39
2023/12/06 01:30:20;;;;;;;51.45;23.23;;;;;;;5.75;89.28;99549.47;5133930;27;20160;-38
2023/12/06 01:32:45;;;;;;;51.55;22.90;;;;;;;5.64;90.84;99538.34;5134129;27;20421;-40
2023/12/06 01:35:11;;;;;;;53.47;25.42;;;;;;;5.74;90.83;99545.22;5133779;27;20027;-36
2023/12/06 01:37:36;;;;;;;52.50;23.48;;;;;;;5.82;89.96;99540.66;5133519;27;20045;-39
2023/12/06 01:40:04;;;;;;;55.85;23.98;;;;;;;5.80;89.77;99539.22;5133020;27;20019;-38
2023/12/06 01:42:30;;;;;;;54.72;23.90;;;;;;;5.77;89.68;99543.03;5133725;27;20023;-38
2023/12/06 01:44:55;;;;;;;54.10;24.30;;;;;;;5.82;89.10;99539.84;5133216;27;20061;-40
2023/12/06 01:47:22;;;;;;;50.50;22.27;;;;;;;5.72;89.34;99529.53;5133363;27;20031;-40
2023/12/06 01:49:49;;;;;;;56.60;24.08;;;;;;;5.62;90.52;99528.97;5132748;27;20084;-39
2023/12/06 01:52:15;;;;;;;54.67;23.65;;;;;;;5.68;89.75;99518.50;5132787;27;20043;-38
2023/12/06 01:54:40;;;;;;;50.40;23.05;;;;;;;5.75;90.59;99518.63;5133167;27;20488;-40
2023/12/06 01:57:06;;;;;;;54.13;23.88;;;;;;;5.65;90.46;99512.75;5114818;27;20044;-39
2023/12/06 01:59:32;;;;;;;52.47;22.88;;;;;;;5.58;90.47;99511.81;5133163;27;20066;-40
2023/12/06 02:01:58;;;;;;;50.95;22.40;;;;;;;5.51;89.02;99506.44;5133191;27;20115;-40
2023/12/06 02:04:25;;;;;;;51.28;22.20;;;;;;;5.58;90.37;99496.81;5133395;27;20153;-36
2023/12/06 02:06:51;;;;;;;51.03;22.55;;;;;;;5.57;89.12;99494.34;5132934;27;20551;-39
2023/12/06 02:09:17;;;;;;;52.13;23.25;;;;;;;5.66;88.60;99490.66;5132842;27;20098;-39
2023/12/06 02:11:43;;;;;;;51.75;21.50;;;;;;;5.62;89.40;99478.81;5133106;27;20384;-39
2023/12/06 02:14:08;;;;;;;47.78;21.60;;;;;;;5.47;89.61;99484.84;5132964;27;20110;-39
2023/12/06 02:16:34;;;;;;;60.38;24.77;;;;;;;5.56;90.13;99484.78;5132648;27;20030;-37
2023/12/06 02:18:59;;;;;;;54.30;23.45;;;;;;;5.62;90.75;99482.25;5132465;27;20328;-40
2023/12/06 02:21:26;;;;;;;54.42;22.92;;;;;;;5.75;90.24;99491.38;5132814;27;20035;-37
2023/12/06 02:23:55;;;;;;;57.05;23.23;;;;;;;5.87;90.28;99497.91;5132635;27;20031;-38
2023/12/06 02:26:21;;;;;;;;;;;;;;;5.53;89.88;99490.44;5133071;27;20399;-40
2023/12/06 02:28:52;;;;;;;44.60;21.52;;;;;;;5.60;89.45;99484.25;5132426;27;19928;-38
2023/12/06 02:31:17;;;;;;;49.35;23.40;;;;;;;5.54;90.02;99492.06;5132432;27;20019;-38
2023/12/06 02:33:43;;;;;;;56.45;25.08;;;;;;;5.53;90.04;99490.44;5132244;27;20027;-36
2023/12/06 02:36:10;;;;;;;56.65;23.77;;;;;;;5.66;89.19;99490.66;5132429;27;20057;-38
2023/12/06 02:38:36;;;;;;;58.80;24.73;;;;;;;5.53;88.81;99482.50;5132126;27;20106;-36
2023/12/06 02:41:04;;;;;;;52.72;24.73;;;;;;;5.45;90.19;99489.47;5132597;27;20026;-37
2023/12/06 02:43:29;;;;;;;61.05;25.80;;;;;;;5.20;90.80;99482.75;5132345;27;20466;-40
2023/12/06 02:45:55;;;;;;;65.60;25.80;;;;;;;5.45;91.99;99481.56;5132148;27;20062;-39
2023/12/06 02:48:20;;;;;;;64.78;27.15;;;;;;;5.43;92.55;99475.66;5132118;27;20019;-43
2023/12/06 02:50:46;;;;;;;63.72;27.25;;;;;;;5.48;91.13;99485.66;5132243;27;20023;-40
2023/12/06 02:53:11;;;;;;;65.00;27.45;;;;;;;5.58;91.58;99480.13;5131912;27;20027;-40
2023/12/06 02:55:36;;;;;;;64.32;26.30;;;;;;;5.53;91.80;99477.22;5118583;27;20082;-26
2023/12/06 02:58:02;;;;;;;60.40;26.05;;;;;;;5.49;92.60;99474.94;5131253;27;20062;-26
2023/12/06 03:00:27;;;;;;;63.00;27.27;;;;;;;5.48;92.54;99472.47;5132122;27;20060;-27
2023/12/06 03:02:52;;;;;;;66.88;27.67;;;;;;;5.59;90.86;99477.31;5131709;27;20059;-26
2023/12/06 03:05:19;;;;;;;61.90;26.13;;;;;;;5.56;91.29;99474.22;5131094;27;20030;-25
2023/12/06 03:07:44;;;;;;;63.13;27.40;;;;;;;5.60;91.06;99478.97;5131952;27;20023;-26
2023/12/06 03:10:10;;;;;;;63.40;26.10;;;;;;;5.53;91.85;99474.59;5132024;27;20379;-25
2023/12/06 03:12:35;;;;;;;59.08;25.73;;;;;;;5.55;90.92;99469.94;5132035;27;20075;-25
2023/12/06 03:15:00;;;;;;;67.22;26.77;;;;;;;5.49;90.89;99464.38;5131905;27;20404;-26
2023/12/06 03:17:26;;;;;;;63.42;26.10;;;;;;;5.60;90.74;99470.25;5131737;27;20070;-26
2023/12/06 03:19:51;;;;;;;65.82;26.60;;;;;;;5.64;91.38;99468.88;5131942;28;20114;-26
2023/12/06 03:22:16;;;;;;;61.78;26.80;;;;;;;5.49;91.45;99471.47;5132201;28;20111;-25
2023/12/06 03:24:42;;;;;;;67.97;29.27;;;;;;;5.58;92.07;99465.13;5131897;28;20023;-25
2023/12/06 03:27:07;;;;;;;69.15;27.35;;;;;;;5.46;93.56;99464.75;5132200;28;20068;-26
2023/12/06 03:29:32;;;;;;;73.78;28.73;;;;;;;5.72;92.45;99468.00;5132209;28;20023;-25
2023/12/06 03:31:58;;;;;;;68.13;26.20;;;;;;;5.78;91.90;99462.81;5131580;28;20042;-26
2023/12/06 03:34:23;;;;;;;72.60;27.75;;;;;;;5.63;91.65;99470.69;5131689;28;20022;-26
2023/12/06 03:36:49;;;;;;;74.63;28.85;;;;;;;5.60;92.56;99472.88;5131585;28;20099;-26
2023/12/06 03:39:16;;;;;;;80.07;29.20;;;;;;;5.66;92.96;99472.97;5131570;27;20030;-26
2023/12/06 03:41:41;;;;;;;77.60;29.75;;;;;;;5.60;93.06;99472.88;5131649;27;20023;-25
2023/12/06 03:44:06;;;;;;;66.75;27.15;;;;;;;5.58;92.86;99469.56;5131869;28;20023;-26
2023/12/06 03:46:32;;;;;;;69.50;27.85;;;;;;;5.70;92.00;99464.72;5131485;28;20027;-26
2023/12/06 03:48:57;;;;;;;75.70;26.85;;;;;;;5.73;91.73;99466.97;5131460;28;20067;-26
2023/12/06 03:51:22;;;;;;;70.30;27.58;;;;;;;5.85;91.16;99471.66;5131206;28;20106;-26
2023/12/06 03:53:48;;;;;;;77.28;28.75;;;;;;;5.78;90.85;99465.44;5131558;28;20023;-26
2023/12/06 03:56:13;;;;;;;78.90;29.10;;;;;;;5.76;92.99;99462.16;5131048;28;20059;-26
2023/12/06 03:58:39;;;;;;;68.30;28.45;;;;;;;5.68;92.50;99462.25;5131378;28;20071;-25
2023/12/06 04:01:04;;;;;;;71.30;26.15;;;;;;;5.65;91.97;99458.16;5131566;28;20041;-26
2023/12/06 04:03:30;;;;;;;72.32;27.25;;;;;;;5.70;92.38;99465.53;5131327;28;20038;-39
2023/12/06 04:05:55;;;;;;;67.15;28.30;;;;;;;5.73;92.11;99454.63;5131483;28;20038;-39
2023/12/06 04:08:21;;;;;;;75.70;28.48;;;;;;;5.70;92.27;99457.59;5131458;28;20031;-39
2023/12/06 04:10:46;;;;;;;66.07;27.40;;;;;;;5.58;92.92;99459.03;5131165;28;20026;-38
2023/12/06 04:13:11;;;;;;;71.55;28.52;;;;;;;5.68;93.56;99449.06;5130931;28;20062;-39
2023/12/06 04:15:37;;;;;;;81.40;28.75;;;;;;;5.81;93.15;99459.00;5131398;27;20027;-39
2023/12/06 04:18:03;;;;;;;69.68;28.27;;;;;;;5.76;93.09;99448.97;5135022;27;20102;-37
2023/12/06 04:20:28;;;;;;;74.18;27.25;;;;;;;5.66;92.91;99451.88;5135016;27;20027;-38
2023/12/06 04:22:54;;;;;;;79.22;27.98;;;;;;;5.63;93.53;99440.84;5134991;27;20100;-26
2023/12/06 04:25:19;;;;;;;78.72;27.13;;;;;;;5.77;92.91;99455.91;5135125;27;20023;-26
2023/12/06 04:27:45;;;;;;;82.57;27.75;;;;;;;5.56;92.69;99429.34;5134985;27;20538;-26
2023/12/06 04:30:11;;;;;;;76.18;27.83;;;;;;;5.64;93.48;99438.03;5134986;27;20075;-27
2023/12/06 04:32:36;;;;;;;77.07;27.15;;;;;;;5.75;92.57;99439.41;5135104;27;20049;-26
2023/12/06 04:35:02;;;;;;;77.97;27.33;;;;;;;5.55;93.36;99439.09;5135147;27;20475;-26
2023/12/06 04:37:28;;;;;;;85.68;27.65;;;;;;;5.61;93.85;99441.00;5134504;27;20380;-26
2023/12/06 04:39:53;;;;;;;77.35;27.73;;;;;;;5.71;94.58;99442.56;5134700;27;20551;-26
2023/12/06 04:42:19;;;;;;;84.85;28.58;;;;;;;5.82;93.03;99437.69;5134547;27;20558;-26
2023/12/06 04:44:44;;;;;;;79.28;28.92;;;;;;;5.62;92.18;99439.22;5134749;27;20015;-26
2023/12/06 04:47:09;;;;;;;80.10;26.60;;;;;;;5.64;92.61;99431.94;5134215;27;20020;-25
2023/12/06 04:49:35;;;;;;;68.28;27.30;;;;;;;5.53;92.57;99435.00;5134832;27;20104;-26
2023/12/06 04:52:03;;;;;;;77.57;28.42;;;;;;;5.52;91.98;99434.19;5134452;27;20019;-26
2023/12/06 04:54:28;;;;;;;71.15;27.38;;;;;;;5.43;91.75;99436.06;5134674;27;20034;-26
2023/12/06 04:56:54;;;;;;;78.85;28.02;;;;;;;5.30;93.24;99430.56;5134220;27;20020;-26
2023/12/06 04:59:19;;;;;;;72.38;28.27;;;;;;;5.27;92.94;99428.25;5133805;27;20034;-27
2023/12/06 05:01:45;;;;;;;89.50;29.08;;;;;;;5.27;94.85;99415.06;5134470;27;20145;-26
2023/12/06 05:04:10;;;;;;;74.53;29.13;;;;;;;5.38;94.80;99433.13;5134340;27;20023;-26
2023/12/06 05:06:36;;;;;;;82.30;29.63;;;;;;;5.27;95.09;99426.47;5134563;27;20026;-26
2023/12/06 05:09:02;;;;;;;87.30;29.40;;;;;;;5.23;94.05;99433.06;5134804;27;20019;-25
2023/12/06 05:11:27;;;;;;;84.13;28.80;;;;;;;5.31;94.09;99426.91;5134432;27;20019;-26
2023/12/06 05:13:53;;;;;;;86.95;28.70;;;;;;;5.37;94.50;99428.84;5134255;27;20024;-26
2023/12/06 05:16:18;;;;;;;81.50;28.33;;;;;;;5.35;93.11;99440.56;5134343;27;20046;-26
2023/12/06 05:18:43;;;;;;;78.55;28.20;;;;;;;5.26;93.75;99435.38;5134482;27;20019;-27
2023/12/06 05:21:09;;;;;;;79.55;28.50;;;;;;;5.36;93.49;99427.19;5133848;27;20027;-26
2023/12/06 05:23:34;;;;;;;80.38;26.88;;;;;;;5.26;93.77;99427.44;5134344;27;20034;-25
2023/12/06 05:26:00;;;;;;;79.15;27.83;;;;;;;5.12;93.11;99420.28;5134315;27;20093;-27
2023/12/06 05:28:26;;;;;;;77.20;28.60;;;;;;;5.22;93.86;99428.81;5133518;27;20024;-27
2023/12/06 05:30:52;;;;;;;81.25;26.98;;;;;;;5.46;97.77;99427.78;5133068;27;20075;-24
2023/12/06 05:33:17;;;;;;;150.73;56.53;;;;;;;7.03;100.00;99435.59;5122988;27;20054;-26
2023/12/06 05:35:43;;;;;;;119.55;44.40;;;;;;;8.48;100.00;99433.44;5128522;27;20042;-26
2023/12/06 05:38:08;;;;;;;81.70;31.10;;;;;;;9.53;95.04;99427.75;5154556;27;20455;-27
2023/12/06 05:40:33;;;;;;;67.10;27.17;;;;;;;9.94;84.01;99434.69;5154579;27;20025;-27
2023/12/06 05:43:00;;;;;;;73.43;26.95;;;;;;;10.02;79.19;99433.66;5154349;27;20498;-27
2023/12/06 05:45:25;;;;;;;71.35;27.13;;;;;;;9.99;78.34;99426.91;5154648;27;20060;-26
2023/12/06 05:47:50;;;;;;;69.40;26.98;;;;;;;9.89;76.70;99431.84;5120989;27;20690;-27
2023/12/06 05:50:16;;;;;;;70.78;27.30;;;;;;;9.81;75.71;99435.53;5112389;28;20116;-26
2023/12/06 05:52:41;;;;;;;63.15;24.80;;;;;;;9.75;76.73;99437.16;5112337;28;20027;-27
2023/12/06 05:55:07;;;;;;;115.05;50.00;;;;;;;7.76;82.01;99419.53;5146941;27;20043;-26
2023/12/06 05:57:32;;;;;;;67.60;28.95;;;;;;;7.54;87.77;99434.66;5140496;27;20019;-26
2023/12/06 05:59:58;;;;;;;60.08;24.45;;;;;;;9.17;89.71;99443.03;5133432;27;20050;-27
2023/12/06 06:02:24;;;;;;;52.28;22.52;;;;;;;8.13;82.04;99425.47;5142420;27;20062;-28
2023/12/06 06:04:49;;;;;;;51.45;22.42;;;;;;;7.43;86.36;99429.88;5142804;27;20050;-27
2023/12/06 06:07:15;;;;;;;56.53;23.00;;;;;;;7.21;87.36;99434.34;5150320;27;20026;-27
2023/12/06 06:09:40;;;;;;;52.97;22.00;;;;;;;7.60;87.57;99435.72;5137160;27;20045;-27
2023/12/06 06:12:07;;;;;;;57.75;23.08;;;;;;;8.25;83.26;99435.53;5143027;27;20078;-27
2023/12/06 06:14:33;;;;;;;62.35;23.70;;;;;;;8.66;81.24;99424.13;5128833;27;20023;-26
2023/12/06 06:16:59;;;;;;;63.80;23.98;;;;;;;8.92;79.41;99439.31;5140245;27;20111;-28
2023/12/06 06:19:24;;;;;;;65.45;25.17;;;;;;;9.04;77.62;99444.84;5132139;27;20098;-26
2023/12/06 06:21:50;;;;;;;63.03;25.50;;;;;;;9.09;77.16;99445.06;5132253;27;20023;-29
2023/12/06 06:24:15;;;;;;;62.47;24.23;;;;;;;8.98;77.00;99447.28;5115294;27;20475;-28
2023/12/06 06:26:41;;;;;;;65.65;23.67;;;;;;;9.05;76.45;99442.00;5137905;27;20109;-28
2023/12/06 06:29:07;;;;;;;71.18;24.83;;;;;;;9.07;76.55;99434.66;5132530;27;20375;-26
2023/12/06 06:31:33;;;;;;;76.72;28.35;;;;;;;9.04;76.04;99440.34;5132470;27;20015;-27
2023/12/06 06:34:01;;;;;;;67.70;26.45;;;;;;;8.93;76.89;99433.81;5138012;27;20100;-27
2023/12/06 06:36:27;;;;;;;63.85;23.88;;;;;;;9.21;76.17;99432.81;5143006;27;20034;-27
2023/12/06 06:38:52;;;;;;;62.88;24.40;;;;;;;9.05;76.07;99427.91;5132325;27;20336;-25
2023/12/06 06:41:18;;;;;;;65.78;24.05;;;;;;;9.08;76.67;99432.81;5140003;27;20075;-26
2023/12/06 06:43:43;;;;;;;67.35;25.40;;;;;;;9.02;76.44;99425.66;5126660;27;20043;-26
2023/12/06 06:46:09;;;;;;;57.60;22.55;;;;;;;9.12;76.48;99432.22;5125809;27;20019;-27
2023/12/06 06:48:34;;;;;;;65.85;24.38;;;;;;;9.16;76.35;99432.63;5111972;28;20019;-29
2023/12/06 06:50:59;;;;;;;61.83;24.13;;;;;;;9.15;75.82;99436.28;5125560;27;20023;-26
2023/12/06 06:53:25;;;;;;;58.72;21.92;;;;;;;8.86;76.80;99430.31;5120332;27;20850;-27
2023/12/06 06:55:50;;;;;;;54.22;22.08;;;;;;;8.99;77.36;99427.69;5131912;27;20048;-26
2023/12/06 06:58:16;;;;;;;49.92;20.85;;;;;;;8.84;77.66;99420.94;5132269;27;20019;-27
2023/12/06 07:00:41;;;;;;;55.53;21.20;;;;;;;8.45;80.60;99435.66;5132166;27;20102;-26
2023/12/06 07:03:06;;;;;;;59.72;21.33;;;;;;;8.82;79.28;99433.56;5131447;27;20015;-28
2023/12/06 07:05:32;;;;;;;118.05;51.00;;;;;;;8.23;83.01;99438.38;5130953;27;20479;-27
2023/12/06 07:07:58;;;;;;;117.05;53.83;;;;;;;8.15;85.23;99442.00;5130121;27;20057;-27
2023/12/06 07:10:24;;;;;;;61.15;23.20;;;;;;;8.79;81.67;99432.13;5131119;27;20094;-26
2023/12/06 07:12:49;;;;;;;55.83;22.50;;;;;;;9.19;78.32;99443.69;5130443;27;20439;-27
2023/12/06 07:15:15;;;;;;;58.13;23.30;;;;;;;9.28;76.43;99440.81;5130186;27;20096;-27
2023/12/06 07:17:44;;;;;;;60.40;23.42;;;;;;;9.27;76.32;99447.97;5129980;27;20019;-26
2023/12/06 07:20:13;;;;;;;64.05;23.40;;;;;;;9.42;75.54;99444.31;5131180;27;20015;-28
2023/12/06 07:22:39;;;;;;;63.35;23.13;;;;;;;9.35;74.63;99445.13;5130858;27;20023;-26
2023/12/06 07:25:05;;;;;;;64.70;24.65;;;;;;;9.19;76.03;99443.69;5131284;28;20027;-27
2023/12/06 07:27:31;;;;;;;69.28;25.60;;;;;;;8.20;79.30;99436.91;5130936;28;20490;-27
2023/12/06 07:29:56;;;;;;;72.07;27.77;;;;;;;7.42;84.55;99438.81;5130850;28;20018;-27
2023/12/06 07:32:22;;;;;;;75.85;28.52;;;;;;;7.43;84.46;99441.28;5130711;28;20018;-27
2023/12/06 07:34:47;;;;;;;91.07;29.92;;;;;;;6.96;86.41;99437.34;5130592;28;20102;-27
2023/12/06 07:37:13;;;;;;;80.10;28.70;;;;;;;6.75;86.90;99435.50;5131043;28;20462;-27
2023/12/06 07:39:38;;;;;;;89.78;29.67;;;;;;;6.88;89.20;99436.66;5131309;28;20054;-27
2023/12/06 07:42:04;;;;;;;89.03;29.35;;;;;;;7.35;87.29;99432.63;5131628;28;20444;-26
2023/12/06 07:44:29;;;;;;;87.85;29.27;;;;;;;7.16;87.34;99434.91;5130117;28;20095;-27
2023/12/06 07:46:55;;;;;;;88.70;29.83;;;;;;;7.10;87.80;99435.69;5130243;28;20020;-28
2023/12/06 07:49:20;;;;;;;97.32;30.73;;;;;;;6.83;88.96;99435.41;5132512;27;20094;-26
2023/12/06 07:51:45;;;;;;;94.20;30.73;;;;;;;7.00;90.23;99429.84;5134300;27;20483;-28
2023/12/06 07:54:11;;;;;;;96.90;31.48;;;;;;;7.54;87.68;99433.81;5135447;27;20031;-26
2023/12/06 07:56:37;;;;;;;105.30;32.50;;;;;;;7.12;88.24;99449.53;5134543;27;20039;-27
2023/12/06 07:59:02;;;;;;;88.93;30.92;;;;;;;6.98;88.30;99451.22;5134707;27;20081;-27
2023/12/06 08:01:31;;;;;;;83.65;31.08;;;;;;;6.89;89.67;99452.31;5134397;27;20058;-40
2023/12/06 08:03:59;;;;;;;110.72;33.72;;;;;;;6.82;89.41;99435.59;5134278;27;20023;-40
2023/12/06 08:06:27;;;;;;;105.13;34.85;;;;;;;7.20;89.65;99453.88;5134906;27;20019;-40
2023/12/06 08:08:53;;;;;;;107.93;34.90;;;;;;;7.27;88.58;99457.41;5135486;27;20467;-39
2023/12/06 08:11:19;;;;;;;107.05;33.15;;;;;;;7.04;88.25;99462.88;5135010;27;20122;-41
2023/12/06 08:13:48;;;;;;;94.70;33.40;;;;;;;6.85;89.63;99457.19;5135313;27;20031;-40
2023/12/06 08:16:14;;;;;;;111.07;32.40;;;;;;;6.62;90.69;99457.31;5134751;27;20024;-40
2023/12/06 08:18:39;;;;;;;105.97;33.78;;;;;;;6.68;91.81;99465.50;5134772;27;20027;-38
2023/12/06 08:21:08;;;;;;;101.53;33.42;;;;;;;7.36;89.53;99458.91;5135041;27;20019;-42
2023/12/06 08:23:34;;;;;;;100.10;34.20;;;;;;;7.51;87.24;99458.03;5135041;27;20027;-39
2023/12/06 08:25:59;;;;;;;95.57;31.80;;;;;;;7.14;89.32;99450.16;5134597;27;20023;-40
2023/12/06 08:28:24;;;;;;;103.63;34.05;;;;;;;7.12;88.81;99451.34;5135123;27;20030;-40
2023/12/06 08:30:50;;;;;;;91.75;32.75;;;;;;;6.90;90.20;99440.75;5135120;27;20019;-40
2023/12/06 08:33:18;;;;;;;94.13;32.55;;;;;;;7.16;90.36;99447.31;5134848;27;20031;-40
2023/12/06 08:35:43;;;;;;;96.97;32.60;;;;;;;7.29;89.80;99438.69;5134828;27;20019;-40
2023/12/06 08:38:08;;;;;;;91.72;31.90;;;;;;;7.16;88.74;99432.28;5134834;27;20034;-38
2023/12/06 08:40:34;;;;;;;94.70;33.58;;;;;;;7.08;90.02;99426.28;5134888;27;20110;-41
2023/12/06 08:43:00;;;;;;;96.82;34.75;;;;;;;7.09;90.48;99427.94;5134730;27;20023;-43
2023/12/06 08:45:26;;;;;;;99.00;32.50;;;;;;;6.97;91.98;99428.41;5134827;27;20026;-43
2023/12/06 08:47:51;;;;;;;102.88;34.40;;;;;;;6.96;90.82;99418.03;5134584;27;20103;-43
2023/12/06 08:50:17;;;;;;;109.22;34.22;;;;;;;7.10;89.63;99421.59;5134712;27;20473;-40
2023/12/06 08:52:45;;;;;;;90.50;31.10;;;;;;;6.85;90.25;99424.59;5134842;27;20076;-39
2023/12/06 08:55:12;;;;;;;100.32;32.15;;;;;;;7.20;90.30;99422.13;5134600;27;20043;-39
2023/12/06 08:57:37;;;;;;;99.15;33.38;;;;;;;7.21;90.42;99421.09;5134452;27;20533;-39
2023/12/06 09:00:07;;;;;;;94.22;31.20;;;;;;;7.17;90.08;99422.50;5134720;27;20042;-37
2023/12/06 09:02:33;;;;;;;;;;;;;;;7.15;91.38;99421.88;5133273;27;20178;-39
2023/12/06 09:04:59;;;;;;;98.07;32.53;;;;;;;7.39;90.37;99421.50;5134473;27;19992;-40
2023/12/06 09:07:24;;;;;;;90.40;31.13;;;;;;;7.36;90.00;99416.56;5116039;27;20138;-27
2023/12/06 09:09:50;;;;;;;99.15;32.60;;;;;;;7.42;88.87;99420.28;5134183;27;20023;-28
2023/12/06 09:12:15;;;;;;;92.75;32.33;;;;;;;7.32;89.97;99415.31;5134188;27;20031;-40
2023/12/06 09:14:41;;;;;;;88.32;31.17;;;;;;;7.33;90.40;99406.38;5133922;27;20025;-40
2023/12/06 09:17:06;;;;;;;88.03;29.88;;;;;;;7.25;90.58;99403.84;5133874;27;20106;-38
2023/12/06 09:19:32;;;;;;;97.15;32.33;;;;;;;7.35;90.07;99398.22;5133965;27;20043;-39
2023/12/06 09:21:57;;;;;;;95.95;31.30;;;;;;;7.36;90.67;99394.56;5133492;27;20103;-46
2023/12/06 09:24:23;;;;;;;89.88;32.92;;;;;;;7.51;91.74;99397.94;5133858;27;20026;-39
2023/12/06 09:26:48;;;;;;;91.65;30.80;;;;;;;8.07;88.25;99389.13;5133744;27;20025;-41
2023/12/06 09:29:13;;;;;;;88.80;31.05;;;;;;;7.70;89.20;99388.50;5133779;27;20103;-39
2023/12/06 09:31:39;;;;;;;81.65;29.75;;;;;;;7.47;89.84;99382.66;5134209;27;20049;-40
2023/12/06 09:34:05;;;;;;;83.82;30.35;;;;;;;7.50;89.95;99385.75;5133712;27;20114;-39
2023/12/06 09:36:30;;;;;;;79.13;27.67;;;;;;;7.57;89.53;99377.81;5133859;27;20019;-42
2023/12/06 09:38:57;;;;;;;84.50;30.50;;;;;;;7.50;90.04;99375.16;5133345;27;20100;-27
2023/12/06 09:41:28;;;;;;;89.18;30.42;;;;;;;7.50;89.49;99371.66;5133256;27;20483;-27
2023/12/06 09:43:53;;;;;;;92.53;30.20;;;;;;;7.20;90.99;99362.06;5133311;27;20106;-28
2023/12/06 09:46:19;;;;;;;86.68;31.55;;;;;;;7.68;90.22;99366.72;5133693;27;20110;-30
2023/12/06 09:48:46;;;;;;;100.20;32.40;;;;;;;7.97;87.96;99362.19;5133349;27;20471;-28
2023/12/06 09:51:12;;;;;;;95.25;31.65;;;;;;;7.53;90.13;99366.00;5133000;27;20106;-27
2023/12/06 09:53:38;;;;;;;91.18;31.17;;;;;;;7.53;89.69;99355.41;5132999;27;20114;-27
2023/12/06 09:56:04;;;;;;;90.53;30.50;;;;;;;7.08;90.83;99354.81;5132684;27;20051;-26
2023/12/06 09:58:30;;;;;;;80.50;30.25;;;;;;;7.15;92.33;99355.72;5132706;27;20084;-26
2023/12/06 10:00:57;;;;;;;81.35;28.60;;;;;;;7.49;91.85;99359.44;5133178;27;20031;-27
2023/12/06 10:03:23;;;;;;;75.93;27.88;;;;;;;7.76;90.01;99340.06;5132929;27;20375;-27
2023/12/06 10:05:59;;;;;;;59.50;23.70;;;;;;;7.73;89.71;99336.97;5132841;27;20037;-27
2023/12/06 10:08:25;;;;;;;71.40;24.42;;;;;;;7.49;90.01;99336.44;5132900;27;20023;-28
2023/12/06 10:11:08;;;;;;;63.45;25.05;;;;;;;7.66;89.27;99328.19;5132803;27;20045;-27
2023/12/06 10:13:39;;;;;;;63.13;24.33;;;;;;;7.33;91.43;99334.91;5132383;27;20065;-27
2023/12/06 10:16:14;;;;;;;68.43;26.50;;;;;;;7.52;91.40;99324.63;5132377;27;20565;-26
2023/12/06 10:18:40;;;;;;;76.97;26.98;;;;;;;7.43;90.38;99322.13;5132564;27;20122;-27
2023/12/06 10:21:06;;;;;;;76.50;27.02;;;;;;;7.03;91.35;99332.41;5132801;27;20532;-27
2023/12/06 10:23:31;;;;;;;74.65;27.95;;;;;;;7.24;92.18;99320.97;5133299;27;20027;-28
2023/12/06 10:25:57;;;;;;;81.22;27.33;;;;;;;7.44;90.85;99325.59;5132564;27;20027;-43
2023/12/06 10:28:22;;;;;;;74.25;27.05;;;;;;;7.52;90.28;99314.88;5132814;27;20471;-37
2023/12/06 10:30:59;;;;;;;69.25;26.60;;;;;;;7.53;89.42;99319.13;5132774;27;20023;-44
2023/12/06 10:33:26;;;;;;;67.60;25.75;;;;;;;7.27;90.81;99314.47;5132056;27;20108;-40
2023/12/06 10:35:53;;;;;;;62.05;23.90;;;;;;;7.11;91.61;99306.81;5131980;27;20083;-39
2023/12/06 10:38:21;;;;;;;62.10;24.40;;;;;;;7.47;90.48;99311.16;5132115;27;20471;-39
2023/12/06 10:40:47;;;;;;;60.50;23.73;;;;;;;7.32;90.49;99305.97;5132418;27;20037;-40
2023/12/06 10:43:13;;;;;;;60.60;23.42;;;;;;;7.17;91.06;99306.06;5132262;27;20026;-39
2023/12/06 10:45:40;;;;;;;51.92;21.63;;;;;;;7.22;91.02;99301.00;5132406;27;20077;-40
2023/12/06 10:48:08;;;;;;;57.75;22.33;;;;;;;7.19;92.20;99291.59;5132146;27;20018;-38
2023/12/06 10:50:34;;;;;;;55.75;22.73;;;;;;;7.57;90.42;99303.69;5132442;27;20030;-39
2023/12/06 10:53:00;;;;;;;57.15;23.27;;;;;;;7.33;91.19;99292.53;5132339;27;20019;-37
2023/12/06 10:55:30;;;;;;;53.88;22.23;;;;;;;7.29;91.27;99285.16;5132127;27;20046;-40
2023/12/06 10:57:58;;;;;;;51.42;20.95;;;;;;;7.44;90.12;99299.94;5132301;27;20023;-42
2023/12/06 11:00:23;;;;;;;43.53;18.17;;;;;;;7.55;89.37;99287.97;5132190;27;20543;-40
2023/12/06 11:02:49;;;;;;;41.95;19.13;;;;;;;7.41;90.33;99295.03;5131775;27;20019;-40
2023/12/06 11:05:18;;;;;;;49.88;20.17;;;;;;;7.44;90.07;99292.00;5132477;27;20056;-42
2023/12/06 11:08:08;;;;;;;49.53;19.90;;;;;;;7.30;91.11;99292.09;5131830;27;20246;-40
2023/12/06 11:10:49;;;;;;;54.45;19.63;;;;;;;7.29;91.33;99293.94;5131772;27;20094;-41
2023/12/06 11:13:33;;;;;;;55.75;21.05;;;;;;;7.56;90.42;99300.22;5131869;27;20062;-39
2023/12/06 11:15:58;;;;;;;47.70;21.23;;;;;;;7.52;90.39;99295.50;5131692;27;20023;-28
2023/12/06 11:18:28;;;;;;;53.58;21.50;;;;;;;7.39;91.48;99294.41;5132012;27;20084;-27